Time;durP1;ratioP1;P1;durP2;ratioP2;P2;SDS_P1;SDS_P2;PMS_P1;PMS_P2;Temp;Humidity;BMP_temperature;BMP_pressure;BME280_temperature;BME280_humidity;BME280_pressure;Samples;Min_cycle;Max_cycle;Signal;HPM_P1;HPM_P2
2023/06/06 00:01:59;;;;;;;8.88;2.60;;;13.70;99.90;;;;;;5028179;28;20057;-59
2023/06/06 00:04:27;;;;;;;7.55;2.45;;;13.70;99.90;;;;;;5035131;28;20056;-59
2023/06/06 00:06:54;;;;;;;7.65;2.70;;;13.70;99.90;;;;;;5037982;28;20045;-63
2023/06/06 00:09:21;;;;;;;7.07;2.38;;;13.60;99.90;;;;;;5042047;28;20091;-59
2023/06/06 00:11:48;;;;;;;7.32;2.17;;;13.60;99.90;;;;;;5029688;28;20133;-59
2023/06/06 00:14:18;;;;;;;8.30;2.58;;;13.70;99.90;;;;;;5033802;28;20432;-60
2023/06/06 00:16:48;;;;;;;6.13;2.33;;;13.60;99.90;;;;;;5047310;28;20045;-59
2023/06/06 00:19:16;;;;;;;7.22;2.40;;;13.60;99.90;;;;;;5027567;28;20044;-59
2023/06/06 00:21:42;;;;;;;9.77;2.67;;;13.60;99.90;;;;;;5014869;28;20045;-59
2023/06/06 00:24:11;;;;;;;9.18;2.80;;;13.60;99.90;;;;;;5033754;28;20217;-59
2023/06/06 00:26:38;;;;;;;6.72;2.90;;;13.60;99.90;;;;;;5016644;28;20048;-59
2023/06/06 00:29:05;;;;;;;8.40;2.75;;;13.60;99.90;;;;;;5017079;28;20129;-59
2023/06/06 00:31:32;;;;;;;8.27;2.85;;;13.60;99.90;;;;;;5036627;28;20077;-58
2023/06/06 00:33:59;;;;;;;5.93;2.42;;;13.60;99.90;;;;;;5033290;28;20116;-59
2023/06/06 00:36:26;;;;;;;7.22;2.17;;;13.60;99.90;;;;;;5040082;28;20524;-60
2023/06/06 00:38:52;;;;;;;9.63;3.20;;;13.60;99.90;;;;;;5045219;28;20053;-60
2023/06/06 00:41:20;;;;;;;9.18;2.95;;;13.50;99.90;;;;;;4694378;28;10000292;-60
2023/06/06 00:43:47;;;;;;;14.60;3.00;;;13.50;99.90;;;;;;5044528;28;20045;-60
2023/06/06 00:46:14;;;;;;;7.43;2.17;;;13.50;99.90;;;;;;5042333;28;20056;-59
2023/06/06 00:48:41;;;;;;;10.70;2.78;;;13.50;99.90;;;;;;5030763;28;20124;-59
2023/06/06 00:51:09;;;;;;;7.07;2.53;;;13.50;99.90;;;;;;5019275;28;20447;-60
2023/06/06 00:53:36;;;;;;;8.75;3.00;;;13.50;99.90;;;;;;5031624;28;20455;-59
2023/06/06 00:56:03;;;;;;;6.32;2.63;;;13.40;99.90;;;;;;5041627;28;20041;-59
2023/06/06 00:58:30;;;;;;;6.32;1.95;;;13.30;99.90;;;;;;5031174;28;20045;-59
2023/06/06 01:00:57;;;;;;;6.47;2.28;;;13.40;99.90;;;;;;5026837;28;20420;-59
2023/06/06 01:03:24;;;;;;;6.35;2.83;;;13.20;99.90;;;;;;5011516;28;20056;-59
2023/06/06 01:05:55;;;;;;;10.68;3.10;;;13.30;99.90;;;;;;5023109;28;20056;-59
2023/06/06 01:08:23;;;;;;;14.25;2.85;;;13.30;99.90;;;;;;5030668;28;20205;-59
2023/06/06 01:10:51;;;;;;;6.68;2.63;;;13.30;99.90;;;;;;5032863;28;20559;-59
2023/06/06 01:13:38;;;;;;;10.07;3.28;;;13.30;99.90;;;;;;5045012;28;20075;-60
2023/06/06 01:16:07;;;;;;;12.65;3.83;;;13.30;99.90;;;;;;5044168;28;20519;-60
2023/06/06 01:18:34;;;;;;;5.43;2.88;;;13.20;99.90;;;;;;5014231;28;20052;-60
2023/06/06 01:21:01;;;;;;;14.40;3.35;;;13.20;99.90;;;;;;5032609;28;20045;-60
2023/06/06 01:23:30;;;;;;;10.65;2.85;;;13.30;99.90;;;;;;5025381;28;20428;-60
2023/06/06 01:25:57;;;;;;;7.93;2.92;;;13.30;99.90;;;;;;5023729;28;20048;-60
2023/06/06 01:28:25;;;;;;;10.68;3.58;;;13.20;99.90;;;;;;5034899;28;20505;-60
2023/06/06 01:30:51;;;;;;;7.60;3.30;;;13.20;99.90;;;;;;5031114;28;20338;-60
2023/06/06 01:33:55;;;;;;;8.07;3.20;;;13.20;99.90;;;;;;5020206;28;20041;-60
2023/06/06 01:36:29;;;;;;;10.80;3.23;;;13.20;99.90;;;;;;4990088;28;20046;-60
2023/06/06 01:39:03;;;;;;;10.77;3.53;;;13.20;99.90;;;;;;5036527;28;20500;-60
2023/06/06 01:41:30;;;;;;;7.97;3.33;;;13.20;99.90;;;;;;5044046;28;20197;-60
2023/06/06 01:43:57;;;;;;;12.50;2.75;;;13.30;99.90;;;;;;5017837;28;20522;-60
2023/06/06 01:46:24;;;;;;;10.77;2.83;;;13.20;99.90;;;;;;5024388;28;20038;-59
2023/06/06 01:48:51;;;;;;;14.85;3.88;;;13.30;99.90;;;;;;5020192;28;20488;-59
2023/06/06 01:51:18;;;;;;;8.38;3.40;;;13.30;99.90;;;;;;5031774;28;20049;-65
2023/06/06 01:53:45;;;;;;;8.95;2.88;;;13.20;99.90;;;;;;5036371;28;20055;-60
2023/06/06 01:56:14;;;;;;;7.10;2.78;;;13.20;99.90;;;;;;5046354;28;20045;-60
2023/06/06 01:58:41;;;;;;;9.15;3.17;;;13.20;99.90;;;;;;5039625;28;20544;-60
2023/06/06 02:01:08;;;;;;;9.27;3.58;;;13.10;99.90;;;;;;5038959;28;20500;-60
2023/06/06 02:03:36;;;;;;;10.02;3.30;;;13.10;99.90;;;;;;5037444;28;20496;-60
2023/06/06 02:06:04;;;;;;;8.10;3.60;;;13.20;99.90;;;;;;5040633;28;20517;-61
2023/06/06 02:08:32;;;;;;;5.43;2.88;;;13.20;99.90;;;;;;5034345;28;20136;-61
2023/06/06 02:10:59;;;;;;;12.43;3.65;;;13.30;99.90;;;;;;5048167;28;20060;-60
2023/06/06 02:13:26;;;;;;;15.25;4.22;;;13.10;99.90;;;;;;5033634;28;20136;-60
2023/06/06 02:15:53;;;;;;;6.30;3.00;;;13.20;99.90;;;;;;5047841;28;20052;-60
2023/06/06 02:18:20;;;;;;;9.20;2.80;;;13.10;99.90;;;;;;5043617;28;20053;-60
2023/06/06 02:20:47;;;;;;;7.80;3.50;;;13.20;99.90;;;;;;5012784;28;20041;-60
2023/06/06 02:23:14;;;;;;;8.13;3.58;;;13.20;99.90;;;;;;5016766;28;20053;-60
2023/06/06 02:25:42;;;;;;;12.48;2.95;;;13.10;99.90;;;;;;5044813;28;20048;-60
2023/06/06 02:28:09;;;;;;;11.48;4.63;;;13.20;99.90;;;;;;5043457;28;20045;-60
2023/06/06 02:30:36;;;;;;;13.77;3.45;;;13.10;99.90;;;;;;5045973;28;20049;-61
2023/06/06 02:33:03;;;;;;;8.05;3.13;;;13.10;99.90;;;;;;5043472;28;20041;-59
2023/06/06 02:35:29;;;;;;;8.48;3.40;;;13.20;99.90;;;;;;5047110;28;20187;-59
2023/06/06 02:37:56;;;;;;;11.65;3.38;;;13.20;99.90;;;;;;5042948;28;20057;-59
2023/06/06 02:40:23;;;;;;;5.43;2.97;;;13.10;99.90;;;;;;5045693;28;20041;-58
2023/06/06 02:42:50;;;;;;;11.07;3.28;;;13.10;99.90;;;;;;5031600;28;20045;-61
2023/06/06 02:45:17;;;;;;;7.80;3.33;;;13.10;99.90;;;;;;5039881;28;20053;-58
2023/06/06 02:47:44;;;;;;;6.05;3.35;;;13.10;99.90;;;;;;5050781;28;20519;-59
2023/06/06 02:50:11;;;;;;;6.65;3.08;;;13.10;99.90;;;;;;5039421;28;20072;-59
2023/06/06 02:52:38;;;;;;;6.97;2.90;;;13.10;99.90;;;;;;5047254;28;20122;-59
2023/06/06 02:55:06;;;;;;;9.85;2.80;;;13.10;99.90;;;;;;5037085;28;20056;-60
2023/06/06 02:57:32;;;;;;;7.50;3.08;;;13.10;99.90;;;;;;5051132;28;20045;-59
2023/06/06 03:00:00;;;;;;;9.57;3.17;;;13.00;99.90;;;;;;5046104;28;20488;-59
2023/06/06 03:02:27;;;;;;;11.30;3.67;;;13.10;99.90;;;;;;5031319;28;20049;-59
2023/06/06 03:04:55;;;;;;;10.25;3.17;;;13.10;99.90;;;;;;5041462;28;20049;-62
2023/06/06 03:07:22;;;;;;;8.40;3.00;;;13.10;99.90;;;;;;5051376;28;20107;-60
2023/06/06 03:09:49;;;;;;;15.45;4.28;;;13.00;99.90;;;;;;5046703;28;20045;-61
2023/06/06 03:12:16;;;;;;;9.02;3.20;;;13.10;99.90;;;;;;5032133;28;20067;-59
2023/06/06 03:14:43;;;;;;;9.68;3.20;;;13.00;99.90;;;;;;5044126;28;20572;-59
2023/06/06 03:17:23;;;;;;;7.75;2.80;;;13.00;99.90;;;;;;5045269;28;20555;-59
2023/06/06 03:19:50;;;;;;;8.77;3.28;;;13.00;99.90;;;;;;5028581;28;20065;-59
2023/06/06 03:22:17;;;;;;;7.32;2.90;;;13.10;99.90;;;;;;5037507;28;20143;-60
2023/06/06 03:24:49;;;;;;;8.48;3.00;;;13.10;99.90;;;;;;5037032;28;20265;-59
2023/06/06 03:27:17;;;;;;;6.40;3.17;;;13.10;99.90;;;;;;5038556;28;20500;-59
2023/06/06 03:29:44;;;;;;;4.80;2.85;;;13.10;99.90;;;;;;5034495;28;20037;-59
2023/06/06 03:32:11;;;;;;;9.15;3.58;;;13.10;99.90;;;;;;5040238;28;20451;-59
2023/06/06 03:34:39;;;;;;;7.40;2.88;;;13.10;99.90;;;;;;5030793;28;20064;-59
2023/06/06 03:37:06;;;;;;;6.82;3.22;;;13.10;99.90;;;;;;5039162;28;20060;-58
2023/06/06 03:39:33;;;;;;;12.30;3.38;;;13.10;99.90;;;;;;5049345;28;20049;-59
2023/06/06 03:42:00;;;;;;;11.30;3.08;;;13.10;99.90;;;;;;5041362;28;20045;-59
2023/06/06 03:44:27;;;;;;;7.50;3.22;;;13.10;99.90;;;;;;5046197;28;20051;-58
2023/06/06 03:46:54;;;;;;;7.43;3.08;;;13.10;99.90;;;;;;5037408;28;20045;-59
2023/06/06 03:49:21;;;;;;;8.45;3.30;;;13.10;99.90;;;;;;5050081;28;20041;-59
2023/06/06 03:51:48;;;;;;;7.15;3.38;;;13.10;99.90;;;;;;5044499;28;20052;-59
2023/06/06 03:54:15;;;;;;;6.57;2.88;;;13.10;99.90;;;;;;5029564;28;20133;-59
2023/06/06 03:56:42;;;;;;;7.60;3.47;;;13.10;99.90;;;;;;5033673;28;20522;-59
2023/06/06 03:59:13;;;;;;;11.25;3.22;;;13.10;99.90;;;;;;5045771;28;20561;-59
2023/06/06 04:01:41;;;;;;;9.10;3.45;;;13.10;99.90;;;;;;5033737;28;20053;-59
2023/06/06 04:04:08;;;;;;;13.80;3.88;;;13.10;99.90;;;;;;5029558;28;20048;-59
2023/06/06 04:06:37;;;;;;;9.70;2.90;;;13.10;99.90;;;;;;5044640;28;20049;-59
2023/06/06 04:09:07;;;;;;;9.18;4.05;;;13.10;99.90;;;;;;5049561;28;20095;-58
2023/06/06 04:11:35;;;;;;;8.85;2.92;;;13.10;99.90;;;;;;5041557;28;20409;-59
2023/06/06 04:14:02;;;;;;;11.85;3.30;;;13.10;99.90;;;;;;5042526;28;20508;-60
2023/06/06 04:16:29;;;;;;;7.93;2.70;;;13.10;99.90;;;;;;5025294;28;20048;-59
2023/06/06 04:18:56;;;;;;;9.85;3.10;;;13.10;99.90;;;;;;5036311;28;20575;-59
2023/06/06 04:21:23;;;;;;;8.98;3.20;;;13.10;99.90;;;;;;5032095;28;20286;-60
2023/06/06 04:23:50;;;;;;;8.15;3.47;;;13.10;99.90;;;;;;5034228;28;20052;-59
2023/06/06 04:26:25;;;;;;;7.70;3.40;;;13.10;99.90;;;;;;5028707;28;20365;-59
2023/06/06 04:28:58;;;;;;;8.70;3.55;;;13.10;99.90;;;;;;5038546;28;20146;-59
2023/06/06 04:31:28;;;;;;;11.73;3.67;;;13.20;99.90;;;;;;5043848;28;20069;-59
2023/06/06 04:33:56;;;;;;;13.40;3.42;;;13.20;99.90;;;;;;5040272;28;20084;-59
2023/06/06 04:36:24;;;;;;;10.18;3.00;;;13.20;99.90;;;;;;5043373;28;20048;-59
2023/06/06 04:38:51;;;;;;;12.80;3.25;;;13.10;99.90;;;;;;5037044;28;20072;-59
2023/06/06 04:41:22;;;;;;;9.13;3.22;;;13.20;99.90;;;;;;5043802;28;20515;-59
2023/06/06 04:43:52;;;;;;;8.13;2.88;;;13.10;99.90;;;;;;5041346;28;20069;-60
2023/06/06 04:46:21;;;;;;;7.90;3.20;;;13.20;99.90;;;;;;5029223;28;20046;-61
2023/06/06 04:48:53;;;;;;;8.18;3.15;;;13.20;99.90;;;;;;5034682;28;20387;-59
2023/06/06 04:51:22;;;;;;;9.18;3.30;;;13.20;99.90;;;;;;5049047;28;20049;-59
2023/06/06 04:53:50;;;;;;;6.45;3.25;;;13.20;99.90;;;;;;5040544;28;20063;-59
2023/06/06 04:56:17;;;;;;;7.30;3.10;;;13.20;99.90;;;;;;5048691;28;20057;-59
2023/06/06 04:58:46;;;;;;;7.72;3.42;;;13.20;99.90;;;;;;5044028;28;20492;-59
2023/06/06 05:01:13;;;;;;;8.20;3.17;;;13.20;99.90;;;;;;5043422;28;20052;-59
2023/06/06 05:03:40;;;;;;;10.75;3.33;;;13.30;99.90;;;;;;5036682;28;20056;-59
2023/06/06 05:06:07;;;;;;;11.75;3.10;;;13.30;99.90;;;;;;5032061;28;20045;-59
2023/06/06 05:08:39;;;;;;;15.88;4.40;;;13.30;99.90;;;;;;5032375;28;20607;-59
2023/06/06 05:11:08;;;;;;;6.18;3.13;;;13.30;99.90;;;;;;5043536;28;20423;-59
2023/06/06 05:13:35;;;;;;;10.80;3.33;;;13.30;99.90;;;;;;5044059;28;20630;-59
2023/06/06 05:16:02;;;;;;;8.70;3.05;;;13.30;99.90;;;;;;5017656;28;20042;-59
2023/06/06 05:18:32;;;;;;;10.88;3.92;;;13.40;99.90;;;;;;5032231;28;20056;-60
2023/06/06 05:21:02;;;;;;;7.32;3.10;;;13.40;99.90;;;;;;5036168;28;20042;-60
2023/06/06 05:23:29;;;;;;;9.60;2.80;;;13.40;99.90;;;;;;5029641;28;20118;-60
2023/06/06 05:25:57;;;;;;;4.75;2.50;;;13.40;99.90;;;;;;5038625;28;20059;-59
2023/06/06 05:28:24;;;;;;;7.30;3.53;;;13.50;99.90;;;;;;5030433;28;20060;-59
2023/06/06 05:30:56;;;;;;;4.82;2.90;;;13.50;99.90;;;;;;5037108;28;20067;-59
2023/06/06 05:33:25;;;;;;;6.65;2.88;;;13.50;99.90;;;;;;5047233;28;20049;-61
2023/06/06 05:35:55;;;;;;;7.75;3.42;;;13.50;99.90;;;;;;5044339;28;20056;-60
2023/06/06 05:38:23;;;;;;;8.45;3.03;;;13.60;99.90;;;;;;5047140;28;20076;-61
2023/06/06 05:40:51;;;;;;;9.90;3.10;;;13.60;99.90;;;;;;5043822;28;20099;-59
2023/06/06 05:43:18;;;;;;;8.68;2.90;;;13.70;99.90;;;;;;5028285;28;20065;-59
2023/06/06 05:45:45;;;;;;;9.98;3.10;;;13.80;99.90;;;;;;5034384;28;20046;-59
2023/06/06 05:48:11;;;;;;;9.50;3.28;;;13.80;99.90;;;;;;5047930;28;20312;-60
2023/06/06 05:50:38;;;;;;;12.30;4.00;;;13.80;99.90;;;;;;5043413;28;20400;-60
2023/06/06 05:53:05;;;;;;;9.70;3.50;;;13.80;99.90;;;;;;5028661;28;20136;-60
2023/06/06 05:55:35;;;;;;;5.25;2.55;;;13.70;99.90;;;;;;5020150;28;20038;-59
2023/06/06 05:58:05;;;;;;;10.50;3.72;;;13.80;99.90;;;;;;5045779;28;20055;-60
2023/06/06 06:00:33;;;;;;;12.52;4.03;;;13.80;99.90;;;;;;5040948;28;20064;-61
2023/06/06 06:03:00;;;;;;;10.30;3.13;;;13.90;99.90;;;;;;5031416;28;20049;-61
2023/06/06 06:05:28;;;;;;;7.93;3.38;;;13.80;99.90;;;;;;5034206;28;20411;-61
2023/06/06 06:07:59;;;;;;;10.65;3.28;;;14.00;99.90;;;;;;5033590;28;20140;-60
2023/06/06 06:10:30;;;;;;;9.98;3.00;;;14.00;99.90;;;;;;5031689;28;20056;-60
2023/06/06 06:12:57;;;;;;;10.65;2.85;;;14.00;99.90;;;;;;5041274;28;20118;-60
2023/06/06 06:15:24;;;;;;;8.90;3.28;;;14.10;99.90;;;;;;5046085;28;20065;-59
2023/06/06 06:17:51;;;;;;;7.60;3.15;;;14.20;99.90;;;;;;5051359;28;20045;-60
2023/06/06 06:20:19;;;;;;;7.65;3.22;;;14.20;99.90;;;;;;5031479;28;20045;-59
2023/06/06 06:22:46;;;;;;;19.67;5.05;;;14.20;99.90;;;;;;5040752;28;20489;-60
2023/06/06 06:25:13;;;;;;;15.10;3.78;;;14.20;99.90;;;;;;5049952;28;20096;-60
2023/06/06 06:27:40;;;;;;;7.90;3.30;;;14.30;99.90;;;;;;5042625;28;20535;-61
2023/06/06 06:30:09;;;;;;;9.20;3.60;;;14.30;99.90;;;;;;4684530;28;10000504;-61
2023/06/06 06:32:39;;;;;;;10.63;3.20;;;14.30;99.90;;;;;;5037442;28;20454;-61
2023/06/06 06:35:08;;;;;;;6.53;2.63;;;14.30;99.90;;;;;;5049080;28;20045;-60
2023/06/06 06:37:39;;;;;;;8.73;3.28;;;14.40;99.90;;;;;;5040145;28;20072;-59
2023/06/06 06:40:09;;;;;;;12.48;3.80;;;14.40;99.90;;;;;;5032777;28;20102;-61
2023/06/06 06:42:41;;;;;;;9.60;2.72;;;14.40;99.90;;;;;;5022327;28;20053;-61
2023/06/06 06:45:12;;;;;;;8.63;3.15;;;14.40;99.90;;;;;;5028582;28;20050;-61
2023/06/06 06:47:40;;;;;;;8.80;3.60;;;14.40;99.90;;;;;;5015552;28;20119;-61
2023/06/06 06:50:07;;;;;;;11.02;3.92;;;14.50;99.90;;;;;;5048612;28;20045;-61
2023/06/06 06:52:35;;;;;;;13.10;3.20;;;14.50;99.90;;;;;;5042983;28;20076;-61
2023/06/06 06:55:04;;;;;;;10.32;3.22;;;14.60;99.90;;;;;;5027962;28;20059;-62
2023/06/06 06:57:33;;;;;;;9.05;4.03;;;14.70;99.90;;;;;;5040008;28;20500;-60
2023/06/06 07:00:11;;;;;;;10.27;3.33;;;14.70;99.90;;;;;;5037204;28;20053;-60
2023/06/06 07:02:44;;;;;;;8.05;3.72;;;14.70;99.90;;;;;;5038290;28;20076;-60
2023/06/06 07:05:11;;;;;;;10.93;3.45;;;14.60;99.90;;;;;;5044930;28;20059;-60
2023/06/06 07:07:52;;;;;;;21.30;4.00;;;14.70;99.90;;;;;;5042993;28;20056;-58
2023/06/06 07:10:22;;;;;;;11.02;3.28;;;14.80;99.90;;;;;;5030444;28;20289;-60
2023/06/06 07:12:51;;;;;;;7.85;2.75;;;14.90;99.90;;;;;;5031891;28;20507;-60
2023/06/06 07:15:19;;;;;;;11.90;3.38;;;14.90;99.90;;;;;;5027968;28;20152;-60
2023/06/06 07:17:48;;;;;;;5.75;3.15;;;14.90;99.90;;;;;;5042404;28;20107;-59
2023/06/06 07:20:15;;;;;;;11.05;4.45;;;15.00;99.90;;;;;;5045107;28;20045;-59
2023/06/06 07:22:42;;;;;;;23.33;3.65;;;14.90;99.90;;;;;;5040617;28;20558;-60
2023/06/06 07:25:09;;;;;;;8.05;2.83;;;15.00;99.90;;;;;;5019736;28;20052;-59
2023/06/06 07:27:37;;;;;;;15.30;2.90;;;15.00;99.90;;;;;;5035151;28;20060;-60
2023/06/06 07:30:14;;;;;;;9.13;2.75;;;15.10;99.90;;;;;;5050766;28;20049;-61
2023/06/06 07:32:42;;;;;;;12.02;3.78;;;15.10;99.90;;;;;;5042139;28;20045;-60
2023/06/06 07:35:11;;;;;;;5.88;2.88;;;15.20;99.90;;;;;;5034671;28;20045;-60
2023/06/06 07:37:38;;;;;;;12.10;3.20;;;15.20;99.90;;;;;;5043955;28;20052;-59
2023/06/06 07:40:08;;;;;;;12.27;3.17;;;15.20;99.90;;;;;;5021815;28;20095;-59
2023/06/06 07:42:35;;;;;;;9.98;3.72;;;15.20;99.90;;;;;;5045332;28;20052;-59
2023/06/06 07:45:05;;;;;;;10.88;3.40;;;15.20;99.90;;;;;;5037673;28;20041;-59
2023/06/06 07:47:32;;;;;;;6.43;3.03;;;15.20;99.90;;;;;;5037034;28;20149;-60
2023/06/06 07:49:59;;;;;;;11.57;3.45;;;15.20;99.90;;;;;;5017804;28;20053;-62
2023/06/06 07:52:26;;;;;;;9.52;2.83;;;15.30;99.90;;;;;;5040430;28;20179;-60
2023/06/06 07:54:53;;;;;;;11.30;3.20;;;15.40;99.90;;;;;;5039619;28;20041;-58
2023/06/06 07:57:20;;;;;;;11.20;2.90;;;15.30;99.90;;;;;;5043639;28;20122;-59
2023/06/06 07:59:47;;;;;;;12.70;3.10;;;15.40;99.90;;;;;;5043704;28;20465;-59
2023/06/06 08:02:14;;;;;;;11.68;3.10;;;15.50;99.90;;;;;;5043621;28;20552;-60
2023/06/06 08:04:42;;;;;;;9.70;3.28;;;15.50;99.90;;;;;;5036573;28;20504;-59
2023/06/06 08:07:09;;;;;;;17.55;4.35;;;15.50;99.90;;;;;;5039953;28;20425;-61
2023/06/06 08:09:37;;;;;;;17.38;4.55;;;15.60;99.90;;;;;;5041345;28;20424;-59
2023/06/06 08:12:05;;;;;;;8.80;2.60;;;15.70;99.90;;;;;;5042003;28;20419;-59
2023/06/06 08:14:34;;;;;;;8.77;3.42;;;15.70;99.90;;;;;;5039177;28;20049;-59
2023/06/06 08:17:05;;;;;;;6.28;2.53;;;15.70;99.90;;;;;;5046341;28;20049;-58
2023/06/06 08:19:32;;;;;;;12.75;3.10;;;15.70;99.90;;;;;;5024911;28;20052;-59
2023/06/06 08:22:01;;;;;;;8.13;3.75;;;15.60;99.90;;;;;;5038367;28;20049;-60
2023/06/06 08:24:28;;;;;;;7.95;3.75;;;15.60;99.90;;;;;;5036739;28;20050;-59
2023/06/06 08:26:56;;;;;;;9.55;3.38;;;15.70;99.90;;;;;;5041468;28;20506;-59
2023/06/06 08:29:23;;;;;;;10.20;3.35;;;15.80;99.90;;;;;;5037883;28;20064;-59
2023/06/06 08:31:50;;;;;;;8.50;3.22;;;15.70;99.90;;;;;;5023573;28;20041;-59
2023/06/06 08:34:17;;;;;;;6.28;2.75;;;15.70;99.90;;;;;;5039513;28;20063;-59
2023/06/06 08:36:44;;;;;;;6.95;3.00;;;15.70;99.90;;;;;;5039550;28;20049;-59
2023/06/06 08:39:11;;;;;;;11.52;3.60;;;15.70;99.90;;;;;;5040221;28;20532;-59
2023/06/06 08:41:38;;;;;;;7.60;3.17;;;15.70;99.90;;;;;;5040519;28;20045;-59
2023/06/06 08:44:05;;;;;;;8.55;3.10;;;15.70;99.90;;;;;;5022805;28;20132;-59
2023/06/06 08:46:33;;;;;;;8.93;2.70;;;15.80;99.90;;;;;;5024102;28;20053;-60
2023/06/06 08:49:06;;;;;;;10.13;3.72;;;16.00;99.90;;;;;;5028784;28;20483;-59
2023/06/06 08:51:33;;;;;;;8.93;2.97;;;15.90;99.90;;;;;;5032467;28;20136;-59
2023/06/06 08:54:00;;;;;;;10.20;3.22;;;16.00;99.90;;;;;;5012648;28;20052;-59
2023/06/06 08:56:27;;;;;;;16.75;3.38;;;16.00;99.90;;;;;;5025998;28;20068;-60
2023/06/06 08:58:55;;;;;;;11.38;3.75;;;16.00;99.90;;;;;;5033808;28;20049;-59
2023/06/06 09:01:22;;;;;;;13.05;3.30;;;16.10;99.90;;;;;;5019920;28;20491;-59
2023/06/06 09:03:52;;;;;;;7.15;3.00;;;16.10;99.90;;;;;;5042243;28;20072;-59
2023/06/06 09:06:20;;;;;;;14.05;2.83;;;16.10;99.90;;;;;;5039375;28;20432;-59
2023/06/06 09:08:48;;;;;;;4.80;3.22;;;16.00;99.90;;;;;;5042685;28;20057;-60
2023/06/06 09:11:15;;;;;;;13.45;3.30;;;15.90;99.90;;;;;;5019720;28;20044;-60
2023/06/06 09:13:42;;;;;;;9.13;2.42;;;15.90;99.90;;;;;;5041157;28;20056;-59
2023/06/06 09:16:09;;;;;;;9.65;3.20;;;15.90;99.90;;;;;;5042249;28;20041;-60
2023/06/06 09:18:38;;;;;;;13.38;3.50;;;16.00;99.90;;;;;;5033302;28;20091;-60
2023/06/06 09:21:05;;;;;;;11.40;3.17;;;16.00;99.90;;;;;;5015289;28;20078;-60
2023/06/06 09:23:32;;;;;;;8.25;3.30;;;16.00;99.90;;;;;;5038036;28;20056;-60
2023/06/06 09:25:59;;;;;;;10.18;2.95;;;16.10;99.90;;;;;;5035128;28;20095;-60
2023/06/06 09:28:38;;;;;;;12.25;3.78;;;16.20;99.90;;;;;;5038089;28;20099;-61
2023/06/06 09:31:29;;;;;;;10.02;2.75;;;16.20;99.90;;;;;;5036767;28;20335;-60
2023/06/06 09:33:59;;;;;;;9.85;3.10;;;16.20;99.90;;;;;;5038431;28;20132;-60
2023/06/06 09:36:27;;;;;;;10.18;2.88;;;16.10;99.90;;;;;;5041043;28;20121;-60
2023/06/06 09:39:10;;;;;;;5.38;2.92;;;16.20;99.90;;;;;;5040954;28;20060;-60
2023/06/06 09:41:45;;;;;;;12.70;3.70;;;16.20;99.90;;;;;;5038539;28;20049;-60
2023/06/06 09:44:25;;;;;;;11.48;2.90;;;16.20;99.90;;;;;;4691322;28;9999723;-60
2023/06/06 09:46:58;;;;;;;6.20;2.97;;;16.20;99.90;;;;;;5036801;28;20407;-60
2023/06/06 09:49:31;;;;;;;6.65;3.30;;;16.10;99.90;;;;;;5037865;28;20354;-59
2023/06/06 09:51:57;;;;;;;8.43;3.30;;;16.00;99.90;;;;;;5003598;28;20044;-59
2023/06/06 09:54:24;;;;;;;10.77;3.03;;;16.10;99.90;;;;;;5020755;28;20152;-60
2023/06/06 09:56:52;;;;;;;10.48;3.80;;;16.10;99.90;;;;;;5019342;28;20062;-61
2023/06/06 09:59:20;;;;;;;14.60;3.10;;;16.20;99.90;;;;;;5019282;28;20045;-61
2023/06/06 10:01:47;;;;;;;8.60;3.42;;;16.20;99.90;;;;;;5021501;28;20111;-61
2023/06/06 10:04:14;;;;;;;6.68;3.72;;;16.30;99.90;;;;;;5024140;28;20056;-60
2023/06/06 10:06:43;;;;;;;7.30;3.03;;;16.30;99.90;;;;;;5013565;28;20045;-59
2023/06/06 10:09:11;;;;;;;5.97;2.67;;;16.30;99.90;;;;;;5041003;28;20045;-60
2023/06/06 10:11:38;;;;;;;7.43;2.70;;;16.30;99.90;;;;;;5038893;28;20048;-59
2023/06/06 10:14:05;;;;;;;8.27;2.67;;;16.20;99.90;;;;;;5035734;28;20055;-60
2023/06/06 10:16:34;;;;;;;6.80;3.15;;;16.10;99.90;;;;;;5039789;28;20041;-59
2023/06/06 10:19:01;;;;;;;13.13;3.08;;;15.90;99.90;;;;;;5036030;28;20487;-59
2023/06/06 10:21:28;;;;;;;9.85;2.88;;;15.90;99.90;;;;;;5044681;28;20095;-60
2023/06/06 10:23:55;;;;;;;7.75;2.58;;;15.90;99.90;;;;;;5037529;28;20053;-60
2023/06/06 10:26:54;;;;;;;14.40;6.20;;;16.20;99.90;;;;;;5039606;28;20520;-60
2023/06/06 10:29:31;;;;;;;11.02;3.83;;;16.40;99.90;;;;;;5021200;28;20452;-60
2023/06/06 10:32:04;;;;;;;14.00;3.70;;;16.50;99.90;;;;;;5018321;28;20128;-60
2023/06/06 10:34:35;;;;;;;12.95;4.38;;;16.60;99.90;;;;;;5037832;28;20054;-60
2023/06/06 10:37:15;;;;;;;5.55;3.08;;;16.70;99.90;;;;;;5025485;28;20055;-60
2023/06/06 10:39:48;;;;;;;9.00;3.47;;;16.80;99.90;;;;;;5036836;28;20476;-59
2023/06/06 10:42:15;;;;;;;9.70;3.03;;;16.80;99.90;;;;;;5042937;28;20053;-58
2023/06/06 10:44:45;;;;;;;10.57;3.78;;;16.70;99.90;;;;;;5020208;28;20053;-60
2023/06/06 10:47:21;;;;;;;10.57;3.50;;;16.60;99.90;;;;;;5041586;28;20077;-60
2023/06/06 10:52:50;;;;;;;13.73;3.15;;;16.50;99.90;;;;;;5036277;28;20092;-60
2023/06/06 10:55:44;;;;;;;9.00;2.60;;;16.50;99.90;;;;;;5037801;28;20045;-61
2023/06/06 10:58:18;;;;;;;10.48;3.72;;;16.60;99.90;;;;;;5043528;28;20087;-60
2023/06/06 11:00:50;;;;;;;10.80;3.67;;;16.60;99.90;;;;;;5020354;28;20514;-60
2023/06/06 11:03:37;;;;;;;11.65;3.38;;;16.60;99.90;;;;;;5039090;28;20053;-60
2023/06/06 11:06:07;;;;;;;8.10;3.47;;;16.70;99.90;;;;;;4676217;28;9999815;-59
2023/06/06 11:08:53;;;;;;;7.40;3.00;;;16.70;99.90;;;;;;5042580;28;20514;-60
2023/06/06 11:11:24;;;;;;;4.85;2.50;;;16.70;99.90;;;;;;5017699;28;20060;-59
2023/06/06 11:14:04;;;;;;;9.32;2.85;;;16.60;99.90;;;;;;5037976;28;20057;-59
2023/06/06 11:17:00;;;;;;;7.15;2.90;;;16.50;99.90;;;;;;5042430;28;20296;-59
2023/06/06 11:19:33;;;;;;;11.02;2.95;;;16.50;99.90;;;;;;5002979;28;20085;-59
2023/06/06 11:22:00;;;;;;;6.87;3.40;;;16.60;99.90;;;;;;5040075;28;20052;-60
2023/06/06 11:24:32;;;;;;;13.93;3.28;;;16.70;99.90;;;;;;5027530;28;20290;-59
2023/06/06 11:26:59;;;;;;;7.15;2.85;;;16.90;99.90;;;;;;5040200;28;20508;-59
2023/06/06 11:29:27;;;;;;;7.78;2.72;;;17.10;99.90;;;;;;5047089;28;20131;-60
2023/06/06 11:31:53;;;;;;;11.55;3.50;;;17.20;99.90;;;;;;5025327;28;20056;-60
2023/06/06 11:34:20;;;;;;;7.50;2.92;;;17.40;99.90;;;;;;5023005;28;20496;-60
2023/06/06 11:36:51;;;;;;;8.27;2.83;;;17.50;99.90;;;;;;5041740;28;20084;-59
2023/06/06 11:39:19;;;;;;;8.88;2.92;;;17.50;99.90;;;;;;5029484;28;20107;-60
2023/06/06 11:41:49;;;;;;;9.50;3.05;;;17.60;99.90;;;;;;5021691;28;20088;-62
2023/06/06 11:44:17;;;;;;;5.72;2.90;;;17.70;99.90;;;;;;5042676;28;20068;-59
2023/06/06 11:46:48;;;;;;;7.47;3.10;;;17.80;99.90;;;;;;5040086;28;20083;-61
2023/06/06 11:49:16;;;;;;;9.73;3.50;;;17.90;99.90;;;;;;5045876;28;20404;-59
2023/06/06 11:51:43;;;;;;;6.18;3.88;;;17.80;99.90;;;;;;5042877;28;20120;-60
2023/06/06 11:54:18;;;;;;;7.10;2.42;;;17.70;99.90;;;;;;5045882;28;20056;-60
2023/06/06 11:56:45;;;;;;;;;;;17.60;99.90;;;;;;5015215;28;20536;-60
2023/06/06 11:59:12;;;;;;;6.63;2.78;;;17.80;99.90;;;;;;5018681;28;20284;-60
2023/06/06 12:01:49;;;;;;;7.53;3.28;;;17.90;99.90;;;;;;5030584;28;20045;-59
2023/06/06 12:04:17;;;;;;;11.30;3.38;;;18.00;99.90;;;;;;5036730;28;20826;-59
2023/06/06 12:06:46;;;;;;;8.20;3.05;;;17.90;99.90;;;;;;5033895;28;20045;-60
2023/06/06 12:09:16;;;;;;;7.63;2.85;;;18.00;99.90;;;;;;5037768;28;20042;-60
2023/06/06 12:11:53;;;;;;;10.43;2.95;;;18.00;99.90;;;;;;5027667;28;20551;-59
2023/06/06 12:14:23;;;;;;;7.47;3.13;;;18.20;99.90;;;;;;5034332;28;20052;-60
2023/06/06 12:16:50;;;;;;;10.35;2.90;;;18.20;99.90;;;;;;5045351;28;20057;-60
2023/06/06 12:19:18;;;;;;;11.15;2.90;;;18.20;99.90;;;;;;5045219;28;20053;-60
2023/06/06 12:21:49;;;;;;;10.60;3.10;;;18.30;99.90;;;;;;5029211;28;20428;-60
2023/06/06 12:24:23;;;;;;;10.15;2.95;;;18.40;99.90;;;;;;5038545;28;20072;-60
2023/06/06 12:26:53;;;;;;;12.43;2.78;;;18.40;99.90;;;;;;5028051;28;20046;-60
2023/06/06 12:29:26;;;;;;;4.55;3.17;;;18.40;99.90;;;;;;5038257;28;20049;-60
2023/06/06 12:32:11;;;;;;;7.77;3.03;;;18.30;99.90;;;;;;5049155;28;20049;-63
2023/06/06 12:34:48;;;;;;;6.10;2.70;;;18.40;99.90;;;;;;5040284;28;20294;-60
2023/06/06 12:37:16;;;;;;;10.25;2.95;;;18.50;99.90;;;;;;5027321;28;20508;-60
2023/06/06 12:39:44;;;;;;;6.80;3.45;;;18.60;99.90;;;;;;5042725;28;20056;-60
2023/06/06 12:42:18;;;;;;;4.47;2.70;;;18.70;99.90;;;;;;5019903;28;20091;-59
2023/06/06 12:44:46;;;;;;;7.60;3.00;;;18.70;99.90;;;;;;5039828;28;20041;-59
2023/06/06 12:47:14;;;;;;;7.13;2.40;;;18.70;99.90;;;;;;5025015;28;20041;-60
2023/06/06 12:49:41;;;;;;;10.20;3.47;;;18.80;99.90;;;;;;5043940;28;20049;-60
2023/06/06 12:52:08;;;;;;;5.72;2.50;;;18.90;99.90;;;;;;5037307;28;20684;-60
2023/06/06 12:54:40;;;;;;;11.05;3.63;;;18.90;99.90;;;;;;5040007;28;20048;-60
2023/06/06 12:57:08;;;;;;;8.57;2.60;;;18.90;99.90;;;;;;5037262;28;20442;-60